createdAt,value
2022-11-18T00:00:55.751Z,3.85
2022-11-18T00:03:22.987Z,3.83
2022-11-18T00:05:56.992Z,3.78
2022-11-18T00:08:24.940Z,3.80
2022-11-18T00:10:51.834Z,3.80
2022-11-18T00:13:37.643Z,3.73
2022-11-18T00:16:09.650Z,3.68
2022-11-18T00:18:36.921Z,3.66
2022-11-18T00:21:08.956Z,3.53
2022-11-18T00:23:35.912Z,3.49
2022-11-18T00:26:07.625Z,3.53
2022-11-18T00:28:34.597Z,3.61
2022-11-18T00:31:06.340Z,3.63
2022-11-18T00:33:33.144Z,3.72
2022-11-18T00:36:02.681Z,3.73
2022-11-18T00:38:29.547Z,3.72
2022-11-18T00:41:07.729Z,3.75
2022-11-18T00:43:34.613Z,3.59
2022-11-18T00:46:01.588Z,3.62
2022-11-18T00:48:28.550Z,3.58
2022-11-18T00:50:58.401Z,3.58
2022-11-18T00:53:27.002Z,3.59
2022-11-18T00:55:53.934Z,3.72
2022-11-18T00:58:21.005Z,3.61
2022-11-18T01:00:51.404Z,3.70
2022-11-18T01:03:18.561Z,3.67
2022-11-18T01:05:45.326Z,3.57
2022-11-18T01:08:13.011Z,3.62
2022-11-18T01:10:40.676Z,3.69
2022-11-18T01:13:20.082Z,3.74
2022-11-18T01:15:57.940Z,3.70
2022-11-18T01:18:26.833Z,3.75
2022-11-18T01:20:53.515Z,3.81
2022-11-18T01:23:20.876Z,3.87
2022-11-18T01:25:49.425Z,3.86
2022-11-18T01:28:23.165Z,3.83
2022-11-18T01:30:50.564Z,3.82
2022-11-18T01:33:17.417Z,3.89
2022-11-18T01:35:44.915Z,3.86
2022-11-18T01:38:13.641Z,3.80
2022-11-18T01:40:41.106Z,3.86
2022-11-18T01:43:15.850Z,3.80
2022-11-18T01:45:44.603Z,3.77
2022-11-18T01:48:20.909Z,3.88
2022-11-18T01:50:59.902Z,3.79
2022-11-18T01:53:29.635Z,3.81
2022-11-18T01:55:58.557Z,3.80
2022-11-18T01:58:36.109Z,3.86
2022-11-18T02:01:04.137Z,3.94
2022-11-18T02:03:31.101Z,3.96
2022-11-18T02:05:58.627Z,3.97
2022-11-18T02:08:25.826Z,4.04
2022-11-18T02:10:52.520Z,4.04
2022-11-18T02:13:19.474Z,4.03
2022-11-18T02:16:20.404Z,4.06
2022-11-18T02:19:06.220Z,4.06
2022-11-18T02:21:54.325Z,4.06
2022-11-18T02:24:55.047Z,4.07
2022-11-18T02:27:27.674Z,4.06
2022-11-18T02:30:08.383Z,4.05
2022-11-18T02:32:44.215Z,4.03
2022-11-18T02:35:18.765Z,3.97
2022-11-18T02:37:57.124Z,4.01
2022-11-18T02:40:26.986Z,4.00
2022-11-18T02:43:01.846Z,3.92
2022-11-18T02:45:29.910Z,3.88
2022-11-18T02:47:57.945Z,3.92
2022-11-18T02:50:26.043Z,3.90
2022-11-18T02:52:56.380Z,3.84
2022-11-18T02:55:24.219Z,3.83
2022-11-18T02:57:51.516Z,3.90
2022-11-18T03:00:18.207Z,3.93
2022-11-18T03:02:49.985Z,3.94
2022-11-18T03:05:38.287Z,3.96
2022-11-18T03:08:13.019Z,3.88
2022-11-18T03:10:44.815Z,3.82
2022-11-18T03:13:29.496Z,3.82
2022-11-18T03:16:03.016Z,3.82
2022-11-18T03:18:55.074Z,3.83
2022-11-18T03:21:35.532Z,3.89
2022-11-18T03:24:15.308Z,3.87
2022-11-18T03:26:46.505Z,3.86
2022-11-18T03:29:16.520Z,3.82
2022-11-18T03:31:57.212Z,3.82
2022-11-18T03:34:37.874Z,3.82
2022-11-18T03:37:10.478Z,3.86
2022-11-18T03:39:41.090Z,3.90
2022-11-18T03:42:11.980Z,3.97
2022-11-18T03:44:40.915Z,3.86
2022-11-18T03:47:15.119Z,3.94
2022-11-18T03:49:54.163Z,4.02
2022-11-18T03:52:24.640Z,3.91
2022-11-18T03:54:53.218Z,3.89
2022-11-18T03:57:47.365Z,3.90
2022-11-18T04:00:16.865Z,3.89
2022-11-18T04:02:44.407Z,3.80
2022-11-18T04:05:12.635Z,3.70
2022-11-18T04:07:45.433Z,3.72
2022-11-18T04:10:14.109Z,3.72
2022-11-18T04:12:47.552Z,3.70
2022-11-18T04:15:14.528Z,3.66
2022-11-18T04:17:43.052Z,3.69
2022-11-18T04:20:20.915Z,3.77
2022-11-18T04:22:47.960Z,3.81
2022-11-18T04:25:15.198Z,3.89
2022-11-18T04:27:41.946Z,3.96
2022-11-18T04:30:09.966Z,3.95
2022-11-18T04:32:36.701Z,3.98
2022-11-18T04:35:03.625Z,3.97
2022-11-18T04:37:30.323Z,3.94
2022-11-18T04:39:57.076Z,3.98
2022-11-18T04:42:23.786Z,3.95
2022-11-18T04:44:50.536Z,3.93
2022-11-18T04:47:17.394Z,3.94
2022-11-18T04:49:44.107Z,3.88
2022-11-18T04:52:11.146Z,3.90
2022-11-18T04:54:39.117Z,3.86
2022-11-18T04:57:05.954Z,3.67
2022-11-18T04:59:32.875Z,3.64
2022-11-18T05:02:01.235Z,3.63
2022-11-18T05:04:30.876Z,3.53
2022-11-18T05:06:58.164Z,3.51
2022-11-18T05:09:31.326Z,3.57
2022-11-18T05:12:17.484Z,3.57
2022-11-18T05:14:49.613Z,3.71
2022-11-18T05:17:17.946Z,3.61
2022-11-18T05:19:44.747Z,3.68
2022-11-18T05:22:11.443Z,3.68
2022-11-18T05:24:38.164Z,3.70
2022-11-18T05:27:04.806Z,3.63
2022-11-18T05:29:31.689Z,3.62
2022-11-18T05:31:58.366Z,3.62
2022-11-18T05:34:25.174Z,3.62
2022-11-18T05:36:51.796Z,3.69
2022-11-18T05:39:18.793Z,3.60
2022-11-18T05:42:03.929Z,3.60
2022-11-18T05:44:30.586Z,3.60
2022-11-18T05:46:57.321Z,3.69
2022-11-18T05:49:24.170Z,3.63
2022-11-18T05:51:50.806Z,3.68
2022-11-18T05:54:19.502Z,3.70
2022-11-18T05:56:46.224Z,3.69
2022-11-18T05:59:14.168Z,3.67
2022-11-18T06:01:57.557Z,3.64
2022-11-18T06:04:49.607Z,3.62
2022-11-18T06:07:23.598Z,3.56
2022-11-18T06:09:53.112Z,3.59
2022-11-18T06:12:22.329Z,3.60
2022-11-18T06:14:53.851Z,3.56
2022-11-18T06:17:24.096Z,3.53
2022-11-18T06:19:51.365Z,3.54
2022-11-18T06:22:18.087Z,3.59
2022-11-18T06:24:45.228Z,3.57
2022-11-18T06:27:12.846Z,3.52
2022-11-18T06:29:39.608Z,3.52
2022-11-18T06:32:06.397Z,3.51
2022-11-18T06:34:38.134Z,3.72
2022-11-18T06:37:20.646Z,3.71
2022-11-18T06:39:47.566Z,3.68
2022-11-18T06:42:36.980Z,3.65
2022-11-18T06:45:04.857Z,3.66
2022-11-18T06:47:31.657Z,3.72
2022-11-18T06:49:58.445Z,3.78
2022-11-18T06:52:25.178Z,3.78
2022-11-18T06:54:51.947Z,3.62
2022-11-18T06:57:18.627Z,3.66
2022-11-18T06:59:45.366Z,3.65
2022-11-18T07:02:12.236Z,3.71
2022-11-18T07:04:42.136Z,3.72
2022-11-18T07:07:08.793Z,3.78
2022-11-18T07:09:36.587Z,3.71
2022-11-18T07:12:03.957Z,3.85
2022-11-18T07:14:31.626Z,3.95
2022-11-18T07:16:58.379Z,3.95
2022-11-18T07:19:25.136Z,3.99
2022-11-18T07:21:51.808Z,3.93
2022-11-18T07:24:18.526Z,3.88
2022-11-18T07:26:45.260Z,3.82
2022-11-18T07:29:12.103Z,3.94
2022-11-18T07:31:39.987Z,3.98
2022-11-18T07:34:08.090Z,3.94
2022-11-18T07:36:36.152Z,4.00
2022-11-18T07:39:05.308Z,4.01
2022-11-18T07:41:32.536Z,4.01
2022-11-18T07:44:01.707Z,3.87
2022-11-18T07:46:33.457Z,3.85
2022-11-18T07:49:02.345Z,3.93
2022-11-18T07:51:32.218Z,3.83
2022-11-18T07:53:59.035Z,3.78
2022-11-18T07:56:25.865Z,3.76
2022-11-18T07:58:54.452Z,3.79
2022-11-18T08:01:29.083Z,3.81
2022-11-18T08:03:55.996Z,3.88
2022-11-18T08:06:22.918Z,4.02
2022-11-18T08:08:49.986Z,4.11
2022-11-18T08:11:22.287Z,4.00
2022-11-18T08:13:50.347Z,4.17
2022-11-18T08:16:22.110Z,4.33
2022-11-18T08:18:49.435Z,4.15
2022-11-18T08:21:17.786Z,4.05
2022-11-18T08:23:50.023Z,4.10
2022-11-18T08:26:16.837Z,4.07
2022-11-18T08:28:44.419Z,4.09
2022-11-18T08:31:13.127Z,4.06
2022-11-18T08:33:40.106Z,4.25
2022-11-18T08:36:21.553Z,4.29
2022-11-18T08:38:48.624Z,4.14
2022-11-18T08:41:19.546Z,4.16
2022-11-18T08:43:46.287Z,4.13
2022-11-18T08:46:13.071Z,4.15
2022-11-18T08:48:39.835Z,4.12
2022-11-18T08:51:06.748Z,4.16
2022-11-18T08:53:33.506Z,4.32
2022-11-18T08:56:01.188Z,4.27
2022-11-18T08:58:28.219Z,4.29
2022-11-18T09:00:55.302Z,4.33
2022-11-18T09:03:22.014Z,4.33
2022-11-18T09:05:48.678Z,4.38
2022-11-18T09:08:16.178Z,4.42
2022-11-18T09:10:43.196Z,4.41
2022-11-18T09:13:33.700Z,4.37
2022-11-18T09:15:59.251Z,4.37
2022-11-18T09:18:26.600Z,4.37
2022-11-18T09:20:57.290Z,4.39
2022-11-18T09:23:24.454Z,4.51
2022-11-18T09:26:08.373Z,4.51
2022-11-18T09:28:35.823Z,4.55
2022-11-18T09:31:08.356Z,4.53
2022-11-18T09:33:35.851Z,4.55
2022-11-18T09:36:03.041Z,4.56
2022-11-18T09:38:30.923Z,4.58
2022-11-18T09:41:09.910Z,4.63
2022-11-18T09:43:39.576Z,4.66
2022-11-18T09:46:22.396Z,4.72
2022-11-18T09:49:08.711Z,4.64
2022-11-18T09:51:40.887Z,4.66
2022-11-18T09:54:31.645Z,4.80
2022-11-18T09:56:58.555Z,4.84
2022-11-18T09:59:28.485Z,4.84
2022-11-18T10:01:59.277Z,4.90
2022-11-18T10:04:28.475Z,4.99
2022-11-18T10:06:55.256Z,5.17
2022-11-18T10:09:33.994Z,5.09
2022-11-18T10:12:23.267Z,5.17
2022-11-18T10:14:59.906Z,5.29
2022-11-18T10:17:38.660Z,5.31
2022-11-18T10:20:11.366Z,5.37
2022-11-18T10:22:59.085Z,5.37
2022-11-18T10:25:26.285Z,5.49
2022-11-18T10:27:53.071Z,5.72
2022-11-18T10:30:23.401Z,5.67
2022-11-18T10:32:58.091Z,5.65
2022-11-18T10:35:29.348Z,5.67
2022-11-18T10:38:08.250Z,5.75
2022-11-18T10:40:36.713Z,5.84
2022-11-18T10:43:03.448Z,5.93
2022-11-18T10:45:31.923Z,5.85
2022-11-18T10:47:59.767Z,5.90
2022-11-18T10:50:34.187Z,6.04
2022-11-18T10:53:01.095Z,6.05
2022-11-18T10:55:28.857Z,6.08
2022-11-18T10:58:08.074Z,6.08
2022-11-18T11:00:38.936Z,6.17
2022-11-18T11:03:20.953Z,6.21
2022-11-18T11:05:47.849Z,6.23
2022-11-18T11:08:39.327Z,6.38
2022-11-18T11:11:06.138Z,6.43
2022-11-18T11:13:33.065Z,6.44
2022-11-18T11:16:02.323Z,6.50
2022-11-18T11:18:43.299Z,6.38
2022-11-18T11:21:17.825Z,6.49
2022-11-18T11:23:44.867Z,6.70
2022-11-18T11:29:25.655Z,6.79
2022-11-18T11:32:04.184Z,6.77
2022-11-18T11:34:51.265Z,6.82
2022-11-18T11:37:33.163Z,6.86
2022-11-18T11:40:40.067Z,6.78
2022-11-18T11:43:21.924Z,6.70
2022-11-18T11:46:22.756Z,6.89
2022-11-18T11:48:58.623Z,6.81
2022-11-18T11:51:34.321Z,6.89
2022-11-18T11:54:03.805Z,6.80
2022-11-18T11:56:53.994Z,6.79
2022-11-18T11:59:33.114Z,6.85
2022-11-18T12:02:21.816Z,6.87
2022-11-18T12:05:18.552Z,6.79
2022-11-18T12:07:53.965Z,6.85
2022-11-18T12:10:20.864Z,6.90
2022-11-18T12:12:52.703Z,6.95
2022-11-18T12:15:45.743Z,7.00
2022-11-18T12:18:31.135Z,7.04
2022-11-18T12:20:58.025Z,7.02
2022-11-18T12:23:27.049Z,7.06
2022-11-18T12:26:10.935Z,7.15
2022-11-18T12:28:42.704Z,7.02
2022-11-18T12:31:18.663Z,7.20
2022-11-18T12:33:54.534Z,7.02
2022-11-18T12:36:33.016Z,7.05
2022-11-18T12:39:25.442Z,6.91
2022-11-18T12:42:23.914Z,6.92
2022-11-18T12:44:52.414Z,6.92
2022-11-18T12:47:37.282Z,6.95
2022-11-18T12:50:11.781Z,6.94
2022-11-18T12:52:41.059Z,6.98
2022-11-18T12:55:18.676Z,6.97
2022-11-18T12:57:45.354Z,6.97
2022-11-18T13:00:24.099Z,6.94
2022-11-18T13:02:52.804Z,6.97
2022-11-18T13:05:22.208Z,6.88
2022-11-18T13:08:12.764Z,6.95
2022-11-18T13:10:55.913Z,6.97
2022-11-18T13:13:33.269Z,6.99
2022-11-18T13:16:23.847Z,6.99
2022-11-18T13:18:52.856Z,6.97
2022-11-18T13:21:46.845Z,7.03
2022-11-18T13:24:15.315Z,6.99
2022-11-18T13:26:43.835Z,6.98
2022-11-18T13:29:31.215Z,6.88
2022-11-18T13:32:12.155Z,7.02
2022-11-18T13:34:50.215Z,7.04
2022-11-18T13:37:28.026Z,6.97
2022-11-18T13:39:55.386Z,7.04
2022-11-18T13:42:30.297Z,7.04
2022-11-18T13:44:58.965Z,7.04
2022-11-18T13:47:39.736Z,6.99
2022-11-18T13:50:27.777Z,6.97
2022-11-18T13:53:30.507Z,6.99
2022-11-18T13:56:02.958Z,6.93
2022-11-18T13:58:40.101Z,7.03
2022-11-18T14:01:21.627Z,6.93
2022-11-18T14:04:00.906Z,6.88
2022-11-18T14:06:38.757Z,6.81
2022-11-18T14:09:17.682Z,6.86
2022-11-18T14:11:47.037Z,6.84
2022-11-18T14:14:29.627Z,6.83
2022-11-18T14:17:04.556Z,6.94
2022-11-18T14:19:32.860Z,6.90
2022-11-18T14:22:11.641Z,6.85
2022-11-18T14:24:40.137Z,6.78
2022-11-18T14:27:36.618Z,6.83
2022-11-18T14:30:30.915Z,6.80
2022-11-18T14:33:06.467Z,6.86
2022-11-18T14:35:35.126Z,6.84
2022-11-18T14:40:58.696Z,6.79
2022-11-18T14:43:25.941Z,6.78
2022-11-18T14:45:58.175Z,6.76
2022-11-18T14:48:31.102Z,6.76
2022-11-18T14:50:59.745Z,6.77
2022-11-18T14:53:26.598Z,6.76
2022-11-18T14:55:54.535Z,6.70
2022-11-18T14:58:21.254Z,6.65
2022-11-18T15:00:49.089Z,6.62
2022-11-18T15:03:16.312Z,6.55
2022-11-18T15:05:43.363Z,6.54
2022-11-18T15:08:10.077Z,6.64
2022-11-18T15:10:36.856Z,6.66
2022-11-18T15:13:03.588Z,6.49
2022-11-18T15:15:30.357Z,6.49
2022-11-18T15:17:57.083Z,6.53
2022-11-18T15:20:23.830Z,6.45
2022-11-18T15:22:50.569Z,6.44
2022-11-18T15:25:17.276Z,6.47
2022-11-18T15:27:43.997Z,6.35
2022-11-18T15:30:13.485Z,6.37
2022-11-18T15:32:40.666Z,6.34
2022-11-18T15:35:07.718Z,6.27
2022-11-18T15:37:34.425Z,6.31
2022-11-18T15:40:01.079Z,6.33
2022-11-18T15:42:27.868Z,6.31
2022-11-18T15:44:54.515Z,6.25
2022-11-18T15:47:21.464Z,6.24
2022-11-18T15:49:48.237Z,6.18
2022-11-18T15:52:14.995Z,6.19
2022-11-18T15:54:41.806Z,6.13
2022-11-18T15:57:08.517Z,6.13
2022-11-18T15:59:35.245Z,6.12
2022-11-18T16:02:02.025Z,6.16
2022-11-18T16:04:28.825Z,6.12
2022-11-18T16:06:56.929Z,6.20
2022-11-18T16:09:23.755Z,6.30
2022-11-18T16:12:09.176Z,6.24
2022-11-18T16:14:37.562Z,6.18
2022-11-18T16:17:04.245Z,6.10
2022-11-18T16:19:33.650Z,6.07
2022-11-18T16:22:00.555Z,6.01
2022-11-18T16:24:29.305Z,6.19
2022-11-18T16:26:56.085Z,6.23
2022-11-18T16:29:24.185Z,6.25
2022-11-18T16:31:52.459Z,6.25
2022-11-18T16:34:22.244Z,6.16
2022-11-18T16:36:54.652Z,6.13
2022-11-18T16:39:26.450Z,6.13
2022-11-18T16:42:02.119Z,6.09
2022-11-18T16:44:33.226Z,6.07
2022-11-18T16:46:59.799Z,6.02
2022-11-18T16:49:27.917Z,5.98
2022-11-18T16:51:56.425Z,5.96
2022-11-18T16:54:27.896Z,6.09
2022-11-18T16:56:55.940Z,6.06
2022-11-18T16:59:24.175Z,5.99
2022-11-18T17:01:51.979Z,6.09
2022-11-18T17:04:19.570Z,6.09
2022-11-18T17:06:46.852Z,6.11
2022-11-18T17:09:19.501Z,6.14
2022-11-18T17:11:46.798Z,6.16
2022-11-18T17:14:13.536Z,6.20
2022-11-18T17:16:40.680Z,6.27
2022-11-18T17:19:11.806Z,6.16
2022-11-18T17:21:38.766Z,6.07
2022-11-18T17:24:06.377Z,6.10
2022-11-18T17:26:32.945Z,5.89
2022-11-18T17:28:59.915Z,5.87
2022-11-18T17:31:26.631Z,5.79
2022-11-18T17:33:54.513Z,5.71
2022-11-18T17:36:23.585Z,5.70
2022-11-18T17:38:52.101Z,5.77
2022-11-18T17:41:39.306Z,5.63
2022-11-18T17:44:07.754Z,5.76
2022-11-18T17:46:38.317Z,5.74
2022-11-18T17:49:15.588Z,5.78
2022-11-18T17:51:42.485Z,5.74
2022-11-18T17:54:09.951Z,5.63
2022-11-18T17:56:36.642Z,5.55
2022-11-18T17:59:03.340Z,5.54
2022-11-18T18:01:30.194Z,5.54
2022-11-18T18:03:56.905Z,5.56
2022-11-18T18:06:23.592Z,5.67
2022-11-18T18:08:50.185Z,5.64
2022-11-18T18:11:18.998Z,5.62
2022-11-18T18:14:04.567Z,5.63
2022-11-18T18:16:33.490Z,5.53
2022-11-18T18:19:01.186Z,5.45
2022-11-18T18:21:28.140Z,5.50
2022-11-18T18:23:54.738Z,5.41
2022-11-18T18:26:24.139Z,5.36
2022-11-18T18:28:54.781Z,5.32
2022-11-18T18:31:21.512Z,5.35
2022-11-18T18:33:48.281Z,5.28
2022-11-18T18:36:17.805Z,5.26
2022-11-18T18:38:45.254Z,5.24
2022-11-18T18:41:14.805Z,5.28
2022-11-18T18:43:41.531Z,5.19
2022-11-18T18:46:30.769Z,5.12
2022-11-18T18:49:09.167Z,5.14
2022-11-18T18:51:46.466Z,5.13
2022-11-18T18:54:15.297Z,5.15
2022-11-18T18:56:42.965Z,5.12
2022-11-18T18:59:10.097Z,5.12
2022-11-18T19:01:37.828Z,5.03
2022-11-18T19:04:06.334Z,5.01
2022-11-18T19:09:25.943Z,5.00
2022-11-18T19:12:11.966Z,5.13
2022-11-18T19:14:38.849Z,4.97
2022-11-18T19:17:10.777Z,5.02
2022-11-18T19:19:58.251Z,5.03
2022-11-18T19:22:25.346Z,4.94
2022-11-18T19:24:52.548Z,4.92
2022-11-18T19:27:20.018Z,4.96
2022-11-18T19:29:47.207Z,4.90
2022-11-18T19:32:13.997Z,4.89
2022-11-18T19:34:40.715Z,4.83
2022-11-18T19:37:07.377Z,4.76
2022-11-18T19:39:35.389Z,4.80
2022-11-18T19:42:02.216Z,4.80
2022-11-18T19:44:29.081Z,4.88
2022-11-18T19:46:55.846Z,5.08
2022-11-18T19:49:22.874Z,4.99
2022-11-18T19:51:49.704Z,4.95
2022-11-18T19:54:16.513Z,4.90
2022-11-18T19:56:43.164Z,4.89
2022-11-18T19:59:12.112Z,4.89
2022-11-18T20:01:39.009Z,4.82
2022-11-18T20:04:05.916Z,4.76
2022-11-18T20:06:34.642Z,4.95
2022-11-18T20:09:02.249Z,4.84
2022-11-18T20:11:30.968Z,4.83
2022-11-18T20:13:57.775Z,4.83
2022-11-18T20:16:25.260Z,4.97
2022-11-18T20:18:56.228Z,5.00
2022-11-18T20:21:26.215Z,5.12
2022-11-18T20:24:02.706Z,5.16
2022-11-18T20:26:34.109Z,5.12
2022-11-18T20:29:01.314Z,5.17
2022-11-18T20:31:31.076Z,5.19
2022-11-18T20:33:58.473Z,5.20
2022-11-18T20:36:29.248Z,5.23
2022-11-18T20:39:13.338Z,5.14
2022-11-18T20:41:42.764Z,5.13
2022-11-18T20:44:09.556Z,5.13
2022-11-18T20:46:41.454Z,5.08
2022-11-18T20:49:08.283Z,5.14
2022-11-18T20:51:36.597Z,5.08
2022-11-18T20:54:08.790Z,5.10
2022-11-18T20:56:36.890Z,5.16
2022-11-18T20:59:05.425Z,5.22
2022-11-18T21:01:33.143Z,5.26
2022-11-18T21:04:03.823Z,5.30
2022-11-18T21:06:33.075Z,5.32
2022-11-18T21:09:03.592Z,5.30
2022-11-18T21:11:31.038Z,5.13
2022-11-18T21:14:23.000Z,5.35
2022-11-18T21:16:53.502Z,5.32
2022-11-18T21:19:24.838Z,5.28
2022-11-18T21:21:54.465Z,5.36
2022-11-18T21:24:29.249Z,5.48
2022-11-18T21:26:56.861Z,5.42
2022-11-18T21:29:29.127Z,5.42
2022-11-18T21:31:59.519Z,5.36
2022-11-18T21:34:26.339Z,5.43
2022-11-18T21:36:55.556Z,5.42
2022-11-18T21:39:25.006Z,5.56
2022-11-18T21:41:57.362Z,5.55
2022-11-18T21:44:29.183Z,5.49
2022-11-18T21:46:59.672Z,5.54
2022-11-18T21:49:32.595Z,5.53
2022-11-18T21:52:03.623Z,5.55
2022-11-18T21:54:40.451Z,5.53
2022-11-18T21:57:13.802Z,5.46
2022-11-18T21:59:45.899Z,5.50
2022-11-18T22:02:17.935Z,5.40
2022-11-18T22:04:56.304Z,5.29
2022-11-18T22:07:25.240Z,5.42
2022-11-18T22:09:52.365Z,5.37
2022-11-18T22:12:21.978Z,5.35
2022-11-18T22:14:48.853Z,5.36
2022-11-18T22:17:15.627Z,5.30
2022-11-18T22:19:42.301Z,5.35
2022-11-18T22:22:08.909Z,5.41
2022-11-18T22:24:35.507Z,5.39
2022-11-18T22:27:04.729Z,5.21
2022-11-18T22:29:35.007Z,5.18
2022-11-18T22:32:01.639Z,5.00
2022-11-18T22:34:29.476Z,4.96
2022-11-18T22:36:56.088Z,4.75
2022-11-18T22:39:22.964Z,4.86
2022-11-18T22:42:07.968Z,4.83
2022-11-18T22:44:35.092Z,4.79
2022-11-18T22:47:01.826Z,4.75
2022-11-18T22:49:28.464Z,4.69
2022-11-18T22:51:55.071Z,4.60
2022-11-18T22:54:39.165Z,4.63
2022-11-18T22:57:07.568Z,4.64
2022-11-18T22:59:34.767Z,4.58
2022-11-18T23:02:01.917Z,4.61
2022-11-18T23:04:28.520Z,4.56
2022-11-18T23:06:55.167Z,4.64
2022-11-18T23:09:21.967Z,4.63
2022-11-18T23:12:07.116Z,4.73
2022-11-18T23:14:33.647Z,4.70
2022-11-18T23:17:00.464Z,4.70
2022-11-18T23:19:27.090Z,4.75
2022-11-18T23:21:53.667Z,4.73
2022-11-18T23:24:20.284Z,4.66
2022-11-18T23:26:47.033Z,4.70
2022-11-18T23:29:14.611Z,4.64
2022-11-18T23:31:43.061Z,4.66
2022-11-18T23:34:11.940Z,4.63
2022-11-18T23:36:39.001Z,4.69
2022-11-18T23:39:06.115Z,4.92
2022-11-18T23:41:32.974Z,4.95
2022-11-18T23:43:59.540Z,4.96
2022-11-18T23:46:27.669Z,4.91
2022-11-18T23:48:54.535Z,4.86
2022-11-18T23:51:22.399Z,4.83
2022-11-18T23:53:52.819Z,4.66
2022-11-18T23:56:20.647Z,4.89
2022-11-18T23:58:50.074Z,4.84
